sensor_id;sensor_type;location;lat;lon;timestamp;P1;durP1;ratioP1;P2;durP2;ratioP2
4208;SDS011;36320;48.860;2.380;2023-04-16T00:00:24;8.93;;;1.70;;
4208;SDS011;36320;48.860;2.380;2023-04-16T00:02:50;8.60;;;1.90;;
4208;SDS011;36320;48.860;2.380;2023-04-16T00:05:18;12.30;;;2.00;;
4208;SDS011;36320;48.860;2.380;2023-04-16T00:07:43;7.57;;;1.50;;
4208;SDS011;36320;48.860;2.380;2023-04-16T00:10:09;7.50;;;1.37;;
4208;SDS011;36320;48.860;2.380;2023-04-16T00:12:35;9.38;;;1.90;;
4208;SDS011;36320;48.860;2.380;2023-04-16T00:15:01;6.77;;;1.63;;
4208;SDS011;36320;48.860;2.380;2023-04-16T00:17:27;8.30;;;2.40;;
4208;SDS011;36320;48.860;2.380;2023-04-16T00:19:53;8.50;;;1.70;;
4208;SDS011;36320;48.860;2.380;2023-04-16T00:22:19;7.45;;;1.80;;
4208;SDS011;36320;48.860;2.380;2023-04-16T00:24:44;8.17;;;1.60;;
4208;SDS011;36320;48.860;2.380;2023-04-16T00:27:10;11.90;;;2.25;;
4208;SDS011;36320;48.860;2.380;2023-04-16T00:29:36;11.30;;;2.10;;
4208;SDS011;36320;48.860;2.380;2023-04-16T00:32:02;7.45;;;1.70;;
4208;SDS011;36320;48.860;2.380;2023-04-16T00:34:28;7.20;;;1.50;;
4208;SDS011;36320;48.860;2.380;2023-04-16T00:36:53;11.60;;;1.90;;
4208;SDS011;36320;48.860;2.380;2023-04-16T00:39:20;7.37;;;1.60;;
4208;SDS011;36320;48.860;2.380;2023-04-16T00:41:48;10.50;;;1.60;;
4208;SDS011;36320;48.860;2.380;2023-04-16T00:44:13;8.40;;;1.70;;
4208;SDS011;36320;48.860;2.380;2023-04-16T00:46:39;6.85;;;1.63;;
4208;SDS011;36320;48.860;2.380;2023-04-16T00:49:05;6.90;;;1.60;;
4208;SDS011;36320;48.860;2.380;2023-04-16T00:51:32;11.10;;;1.95;;
4208;SDS011;36320;48.860;2.380;2023-04-16T00:54:00;6.68;;;1.70;;
4208;SDS011;36320;48.860;2.380;2023-04-16T00:56:27;6.70;;;1.50;;
4208;SDS011;36320;48.860;2.380;2023-04-16T00:58:53;8.40;;;1.73;;
4208;SDS011;36320;48.860;2.380;2023-04-16T01:01:20;14.20;;;2.40;;
4208;SDS011;36320;48.860;2.380;2023-04-16T01:03:48;7.40;;;1.77;;
4208;SDS011;36320;48.860;2.380;2023-04-16T01:06:15;11.52;;;2.60;;
4208;SDS011;36320;48.860;2.380;2023-04-16T01:08:43;7.23;;;1.60;;
4208;SDS011;36320;48.860;2.380;2023-04-16T01:11:10;9.60;;;1.90;;
4208;SDS011;36320;48.860;2.380;2023-04-16T01:13:36;7.53;;;1.77;;
4208;SDS011;36320;48.860;2.380;2023-04-16T01:16:07;11.50;;;1.90;;
4208;SDS011;36320;48.860;2.380;2023-04-16T01:18:35;9.10;;;1.60;;
4208;SDS011;36320;48.860;2.380;2023-04-16T01:21:02;8.77;;;2.28;;
4208;SDS011;36320;48.860;2.380;2023-04-16T01:23:32;8.18;;;1.95;;
4208;SDS011;36320;48.860;2.380;2023-04-16T01:25:58;6.25;;;1.40;;
4208;SDS011;36320;48.860;2.380;2023-04-16T01:28:24;7.93;;;1.67;;
4208;SDS011;36320;48.860;2.380;2023-04-16T01:30:49;11.40;;;1.50;;
4208;SDS011;36320;48.860;2.380;2023-04-16T01:33:16;7.30;;;1.95;;
4208;SDS011;36320;48.860;2.380;2023-04-16T01:35:42;9.00;;;2.30;;
4208;SDS011;36320;48.860;2.380;2023-04-16T01:38:08;7.45;;;1.80;;
4208;SDS011;36320;48.860;2.380;2023-04-16T01:40:36;7.00;;;1.73;;
4208;SDS011;36320;48.860;2.380;2023-04-16T01:43:02;7.60;;;1.80;;
4208;SDS011;36320;48.860;2.380;2023-04-16T01:45:29;6.50;;;1.50;;
4208;SDS011;36320;48.860;2.380;2023-04-16T01:47:56;6.90;;;1.70;;
4208;SDS011;36320;48.860;2.380;2023-04-16T01:50:22;6.78;;;1.60;;
4208;SDS011;36320;48.860;2.380;2023-04-16T01:52:48;7.67;;;1.60;;
4208;SDS011;36320;48.860;2.380;2023-04-16T01:55:14;6.20;;;1.40;;
4208;SDS011;36320;48.860;2.380;2023-04-16T01:57:39;7.37;;;1.70;;
4208;SDS011;36320;48.860;2.380;2023-04-16T02:00:06;6.32;;;1.52;;
4208;SDS011;36320;48.860;2.380;2023-04-16T02:02:33;8.68;;;1.83;;
4208;SDS011;36320;48.860;2.380;2023-04-16T02:04:59;8.10;;;1.90;;
4208;SDS011;36320;48.860;2.380;2023-04-16T02:07:25;6.70;;;1.55;;
4208;SDS011;36320;48.860;2.380;2023-04-16T02:09:51;7.47;;;1.52;;
4208;SDS011;36320;48.860;2.380;2023-04-16T02:12:18;8.50;;;2.20;;
4208;SDS011;36320;48.860;2.380;2023-04-16T02:14:44;7.30;;;1.75;;
4208;SDS011;36320;48.860;2.380;2023-04-16T02:17:10;8.88;;;1.77;;
4208;SDS011;36320;48.860;2.380;2023-04-16T02:19:35;10.13;;;1.97;;
4208;SDS011;36320;48.860;2.380;2023-04-16T02:22:01;6.72;;;1.38;;
4208;SDS011;36320;48.860;2.380;2023-04-16T02:24:27;9.20;;;2.10;;
4208;SDS011;36320;48.860;2.380;2023-04-16T02:26:53;6.90;;;1.70;;
4208;SDS011;36320;48.860;2.380;2023-04-16T02:29:19;12.20;;;2.05;;
4208;SDS011;36320;48.860;2.380;2023-04-16T02:31:46;7.10;;;1.50;;
4208;SDS011;36320;48.860;2.380;2023-04-16T02:34:14;6.53;;;1.70;;
4208;SDS011;36320;48.860;2.380;2023-04-16T02:36:40;12.15;;;1.90;;
4208;SDS011;36320;48.860;2.380;2023-04-16T02:39:05;7.32;;;1.70;;
4208;SDS011;36320;48.860;2.380;2023-04-16T02:41:31;7.00;;;1.70;;
4208;SDS011;36320;48.860;2.380;2023-04-16T02:43:57;8.32;;;2.30;;
4208;SDS011;36320;48.860;2.380;2023-04-16T02:46:23;7.97;;;1.60;;
4208;SDS011;36320;48.860;2.380;2023-04-16T02:48:50;8.23;;;1.92;;
4208;SDS011;36320;48.860;2.380;2023-04-16T02:51:16;7.43;;;1.90;;
4208;SDS011;36320;48.860;2.380;2023-04-16T02:53:42;8.13;;;2.20;;
4208;SDS011;36320;48.860;2.380;2023-04-16T02:56:10;12.50;;;2.10;;
4208;SDS011;36320;48.860;2.380;2023-04-16T02:58:36;7.13;;;1.70;;
4208;SDS011;36320;48.860;2.380;2023-04-16T03:01:02;6.78;;;1.70;;
4208;SDS011;36320;48.860;2.380;2023-04-16T03:03:28;10.93;;;2.28;;
4208;SDS011;36320;48.860;2.380;2023-04-16T03:05:53;16.30;;;2.43;;
4208;SDS011;36320;48.860;2.380;2023-04-16T03:08:19;8.75;;;2.00;;
4208;SDS011;36320;48.860;2.380;2023-04-16T03:10:45;8.50;;;2.30;;
4208;SDS011;36320;48.860;2.380;2023-04-16T03:13:11;11.00;;;2.00;;
4208;SDS011;36320;48.860;2.380;2023-04-16T03:15:38;6.85;;;1.70;;
4208;SDS011;36320;48.860;2.380;2023-04-16T03:18:04;9.37;;;2.10;;
4208;SDS011;36320;48.860;2.380;2023-04-16T03:20:29;9.18;;;1.90;;
4208;SDS011;36320;48.860;2.380;2023-04-16T03:22:55;7.88;;;2.10;;
4208;SDS011;36320;48.860;2.380;2023-04-16T03:25:21;7.43;;;1.70;;
4208;SDS011;36320;48.860;2.380;2023-04-16T03:27:47;7.97;;;2.03;;
4208;SDS011;36320;48.860;2.380;2023-04-16T03:30:13;9.25;;;2.20;;
4208;SDS011;36320;48.860;2.380;2023-04-16T03:32:39;7.35;;;1.80;;
4208;SDS011;36320;48.860;2.380;2023-04-16T03:35:06;10.70;;;1.60;;
4208;SDS011;36320;48.860;2.380;2023-04-16T03:37:33;9.60;;;2.10;;
4208;SDS011;36320;48.860;2.380;2023-04-16T03:39:59;11.85;;;2.40;;
4208;SDS011;36320;48.860;2.380;2023-04-16T03:42:25;7.47;;;2.10;;
4208;SDS011;36320;48.860;2.380;2023-04-16T03:44:51;10.67;;;1.90;;
4208;SDS011;36320;48.860;2.380;2023-04-16T03:47:18;6.63;;;1.83;;
4208;SDS011;36320;48.860;2.380;2023-04-16T03:49:44;10.63;;;1.90;;
4208;SDS011;36320;48.860;2.380;2023-04-16T03:52:10;11.20;;;1.80;;
4208;SDS011;36320;48.860;2.380;2023-04-16T03:54:36;6.40;;;1.70;;
4208;SDS011;36320;48.860;2.380;2023-04-16T03:57:03;7.43;;;2.00;;
4208;SDS011;36320;48.860;2.380;2023-04-16T03:59:28;7.85;;;2.15;;
4208;SDS011;36320;48.860;2.380;2023-04-16T04:01:54;7.68;;;1.80;;
4208;SDS011;36320;48.860;2.380;2023-04-16T04:04:20;9.07;;;2.20;;
4208;SDS011;36320;48.860;2.380;2023-04-16T04:06:46;9.18;;;1.70;;
4208;SDS011;36320;48.860;2.380;2023-04-16T04:09:12;12.67;;;2.17;;
4208;SDS011;36320;48.860;2.380;2023-04-16T04:11:42;13.30;;;2.20;;
4208;SDS011;36320;48.860;2.380;2023-04-16T04:14:07;8.80;;;2.28;;
4208;SDS011;36320;48.860;2.380;2023-04-16T04:16:33;17.70;;;2.30;;
4208;SDS011;36320;48.860;2.380;2023-04-16T04:18:59;11.45;;;2.10;;
4208;SDS011;36320;48.860;2.380;2023-04-16T04:21:26;13.45;;;2.30;;
4208;SDS011;36320;48.860;2.380;2023-04-16T04:23:52;7.85;;;2.47;;
4208;SDS011;36320;48.860;2.380;2023-04-16T04:26:19;10.38;;;2.63;;
4208;SDS011;36320;48.860;2.380;2023-04-16T04:28:45;9.55;;;2.95;;
4208;SDS011;36320;48.860;2.380;2023-04-16T04:31:12;9.88;;;2.53;;
4208;SDS011;36320;48.860;2.380;2023-04-16T04:33:39;12.63;;;3.07;;
4208;SDS011;36320;48.860;2.380;2023-04-16T04:36:04;8.48;;;2.90;;
4208;SDS011;36320;48.860;2.380;2023-04-16T04:38:31;10.25;;;3.40;;
4208;SDS011;36320;48.860;2.380;2023-04-16T04:40:57;12.50;;;3.20;;
4208;SDS011;36320;48.860;2.380;2023-04-16T04:43:23;15.82;;;3.70;;
4208;SDS011;36320;48.860;2.380;2023-04-16T04:45:49;8.43;;;2.37;;
4208;SDS011;36320;48.860;2.380;2023-04-16T04:48:16;10.60;;;2.70;;
4208;SDS011;36320;48.860;2.380;2023-04-16T04:50:43;9.95;;;2.47;;
4208;SDS011;36320;48.860;2.380;2023-04-16T04:53:09;12.00;;;3.80;;
4208;SDS011;36320;48.860;2.380;2023-04-16T04:55:39;11.80;;;3.40;;
4208;SDS011;36320;48.860;2.380;2023-04-16T04:58:05;17.17;;;3.45;;
4208;SDS011;36320;48.860;2.380;2023-04-16T05:00:31;12.55;;;3.55;;
4208;SDS011;36320;48.860;2.380;2023-04-16T05:03:01;10.15;;;3.22;;
4208;SDS011;36320;48.860;2.380;2023-04-16T05:05:29;10.77;;;3.20;;
4208;SDS011;36320;48.860;2.380;2023-04-16T05:07:55;11.93;;;4.25;;
4208;SDS011;36320;48.860;2.380;2023-04-16T05:10:21;17.43;;;4.53;;
4208;SDS011;36320;48.860;2.380;2023-04-16T05:12:46;12.98;;;3.33;;
4208;SDS011;36320;48.860;2.380;2023-04-16T05:15:12;13.70;;;3.70;;
4208;SDS011;36320;48.860;2.380;2023-04-16T05:17:38;18.13;;;4.20;;
4208;SDS011;36320;48.860;2.380;2023-04-16T05:20:04;13.73;;;4.03;;
4208;SDS011;36320;48.860;2.380;2023-04-16T05:22:31;12.98;;;3.58;;
4208;SDS011;36320;48.860;2.380;2023-04-16T05:24:56;12.32;;;4.18;;
4208;SDS011;36320;48.860;2.380;2023-04-16T05:27:22;12.30;;;3.90;;
4208;SDS011;36320;48.860;2.380;2023-04-16T05:29:49;12.23;;;3.88;;
4208;SDS011;36320;48.860;2.380;2023-04-16T05:32:15;12.23;;;4.00;;
4208;SDS011;36320;48.860;2.380;2023-04-16T05:34:41;10.15;;;3.20;;
4208;SDS011;36320;48.860;2.380;2023-04-16T05:37:06;11.63;;;3.15;;
4208;SDS011;36320;48.860;2.380;2023-04-16T05:39:32;11.63;;;3.50;;
4208;SDS011;36320;48.860;2.380;2023-04-16T05:41:58;12.23;;;4.00;;
4208;SDS011;36320;48.860;2.380;2023-04-16T05:44:24;12.98;;;4.10;;
4208;SDS011;36320;48.860;2.380;2023-04-16T05:46:49;14.43;;;3.65;;
4208;SDS011;36320;48.860;2.380;2023-04-16T05:49:15;13.70;;;4.65;;
4208;SDS011;36320;48.860;2.380;2023-04-16T05:51:45;15.57;;;3.95;;
4208;SDS011;36320;48.860;2.380;2023-04-16T05:54:11;11.73;;;4.20;;
4208;SDS011;36320;48.860;2.380;2023-04-16T05:56:36;12.20;;;3.13;;
4208;SDS011;36320;48.860;2.380;2023-04-16T05:59:02;16.27;;;5.35;;
4208;SDS011;36320;48.860;2.380;2023-04-16T06:01:28;17.33;;;4.50;;
4208;SDS011;36320;48.860;2.380;2023-04-16T06:03:54;17.33;;;4.45;;
4208;SDS011;36320;48.860;2.380;2023-04-16T06:06:19;20.20;;;4.53;;
4208;SDS011;36320;48.860;2.380;2023-04-16T06:08:45;13.20;;;4.30;;
4208;SDS011;36320;48.860;2.380;2023-04-16T06:11:12;14.03;;;4.90;;
4208;SDS011;36320;48.860;2.380;2023-04-16T06:13:38;14.43;;;4.88;;
4208;SDS011;36320;48.860;2.380;2023-04-16T06:16:04;16.17;;;4.97;;
4208;SDS011;36320;48.860;2.380;2023-04-16T06:18:30;16.20;;;4.68;;
4208;SDS011;36320;48.860;2.380;2023-04-16T06:20:56;28.67;;;4.70;;
4208;SDS011;36320;48.860;2.380;2023-04-16T06:23:27;19.85;;;4.93;;
4208;SDS011;36320;48.860;2.380;2023-04-16T06:25:52;10.83;;;3.80;;
4208;SDS011;36320;48.860;2.380;2023-04-16T06:28:18;13.57;;;4.40;;
4208;SDS011;36320;48.860;2.380;2023-04-16T06:30:45;15.55;;;4.57;;
4208;SDS011;36320;48.860;2.380;2023-04-16T06:33:11;20.77;;;5.20;;
4208;SDS011;36320;48.860;2.380;2023-04-16T06:35:37;14.50;;;4.43;;
4208;SDS011;36320;48.860;2.380;2023-04-16T06:38:02;14.70;;;4.70;;
4208;SDS011;36320;48.860;2.380;2023-04-16T06:40:28;14.02;;;4.50;;
4208;SDS011;36320;48.860;2.380;2023-04-16T06:42:54;13.83;;;4.43;;
4208;SDS011;36320;48.860;2.380;2023-04-16T06:45:20;22.70;;;5.15;;
4208;SDS011;36320;48.860;2.380;2023-04-16T06:47:46;18.33;;;4.90;;
4208;SDS011;36320;48.860;2.380;2023-04-16T06:50:12;16.23;;;5.10;;
4208;SDS011;36320;48.860;2.380;2023-04-16T06:52:38;11.38;;;3.97;;
4208;SDS011;36320;48.860;2.380;2023-04-16T06:55:04;15.48;;;4.03;;
4208;SDS011;36320;48.860;2.380;2023-04-16T06:57:32;12.18;;;4.18;;
4208;SDS011;36320;48.860;2.380;2023-04-16T06:59:58;16.27;;;4.33;;
4208;SDS011;36320;48.860;2.380;2023-04-16T07:02:23;15.32;;;4.10;;
4208;SDS011;36320;48.860;2.380;2023-04-16T07:04:49;13.07;;;3.80;;
4208;SDS011;36320;48.860;2.380;2023-04-16T07:07:16;23.00;;;4.80;;
4208;SDS011;36320;48.860;2.380;2023-04-16T07:09:42;12.95;;;4.10;;
4208;SDS011;36320;48.860;2.380;2023-04-16T07:12:08;14.57;;;4.53;;
4208;SDS011;36320;48.860;2.380;2023-04-16T07:14:35;15.85;;;4.82;;
4208;SDS011;36320;48.860;2.380;2023-04-16T07:17:01;12.60;;;4.20;;
4208;SDS011;36320;48.860;2.380;2023-04-16T07:19:26;15.07;;;4.30;;
4208;SDS011;36320;48.860;2.380;2023-04-16T07:21:56;20.77;;;4.97;;
4208;SDS011;36320;48.860;2.380;2023-04-16T07:24:22;13.68;;;4.20;;
4208;SDS011;36320;48.860;2.380;2023-04-16T07:26:49;16.13;;;4.80;;
4208;SDS011;36320;48.860;2.380;2023-04-16T07:29:18;15.52;;;5.07;;
4208;SDS011;36320;48.860;2.380;2023-04-16T07:31:44;16.23;;;4.60;;
4208;SDS011;36320;48.860;2.380;2023-04-16T07:34:10;11.97;;;3.40;;
4208;SDS011;36320;48.860;2.380;2023-04-16T07:36:36;13.65;;;4.07;;
4208;SDS011;36320;48.860;2.380;2023-04-16T07:39:03;12.55;;;3.70;;
4208;SDS011;36320;48.860;2.380;2023-04-16T07:41:30;16.67;;;4.30;;
4208;SDS011;36320;48.860;2.380;2023-04-16T07:43:56;12.50;;;4.05;;
4208;SDS011;36320;48.860;2.380;2023-04-16T07:46:22;11.55;;;3.42;;
4208;SDS011;36320;48.860;2.380;2023-04-16T07:48:48;15.00;;;4.77;;
4208;SDS011;36320;48.860;2.380;2023-04-16T07:51:14;14.77;;;4.90;;
4208;SDS011;36320;48.860;2.380;2023-04-16T07:53:39;12.63;;;4.05;;
4208;SDS011;36320;48.860;2.380;2023-04-16T07:56:07;13.70;;;3.85;;
4208;SDS011;36320;48.860;2.380;2023-04-16T07:58:33;14.90;;;3.90;;
4208;SDS011;36320;48.860;2.380;2023-04-16T08:01:01;17.90;;;4.60;;
4208;SDS011;36320;48.860;2.380;2023-04-16T08:03:26;14.10;;;4.15;;
4208;SDS011;36320;48.860;2.380;2023-04-16T08:05:53;13.38;;;4.25;;
4208;SDS011;36320;48.860;2.380;2023-04-16T08:08:18;12.93;;;4.07;;
4208;SDS011;36320;48.860;2.380;2023-04-16T08:10:44;15.27;;;4.10;;
4208;SDS011;36320;48.860;2.380;2023-04-16T08:13:10;14.17;;;4.77;;
4208;SDS011;36320;48.860;2.380;2023-04-16T08:15:35;14.68;;;4.00;;
4208;SDS011;36320;48.860;2.380;2023-04-16T08:18:01;15.73;;;4.60;;
4208;SDS011;36320;48.860;2.380;2023-04-16T08:20:29;15.90;;;5.05;;
4208;SDS011;36320;48.860;2.380;2023-04-16T08:22:55;15.77;;;4.70;;
4208;SDS011;36320;48.860;2.380;2023-04-16T08:25:21;11.85;;;3.88;;
4208;SDS011;36320;48.860;2.380;2023-04-16T08:27:48;12.73;;;4.80;;
4208;SDS011;36320;48.860;2.380;2023-04-16T08:30:15;17.00;;;3.97;;
4208;SDS011;36320;48.860;2.380;2023-04-16T08:32:41;12.73;;;4.00;;
4208;SDS011;36320;48.860;2.380;2023-04-16T08:35:07;13.40;;;4.07;;
4208;SDS011;36320;48.860;2.380;2023-04-16T08:37:33;19.07;;;3.93;;
4208;SDS011;36320;48.860;2.380;2023-04-16T08:39:59;22.55;;;4.50;;
4208;SDS011;36320;48.860;2.380;2023-04-16T08:42:30;14.30;;;4.20;;
4208;SDS011;36320;48.860;2.380;2023-04-16T08:47:40;21.65;;;5.20;;
4208;SDS011;36320;48.860;2.380;2023-04-16T08:50:13;14.70;;;4.28;;
4208;SDS011;36320;48.860;2.380;2023-04-16T08:52:50;15.20;;;5.00;;
4208;SDS011;36320;48.860;2.380;2023-04-16T08:55:42;11.60;;;3.85;;
4208;SDS011;36320;48.860;2.380;2023-04-16T08:58:13;13.55;;;3.50;;
4208;SDS011;36320;48.860;2.380;2023-04-16T09:00:44;13.05;;;4.10;;
4208;SDS011;36320;48.860;2.380;2023-04-16T09:03:11;11.93;;;3.88;;
4208;SDS011;36320;48.860;2.380;2023-04-16T09:05:37;15.57;;;4.20;;
4208;SDS011;36320;48.860;2.380;2023-04-16T09:08:03;16.43;;;4.00;;
4208;SDS011;36320;48.860;2.380;2023-04-16T09:10:30;20.60;;;4.30;;
4208;SDS011;36320;48.860;2.380;2023-04-16T09:12:57;11.80;;;3.90;;
4208;SDS011;36320;48.860;2.380;2023-04-16T09:15:23;13.20;;;4.30;;
4208;SDS011;36320;48.860;2.380;2023-04-16T09:17:53;12.90;;;4.73;;
4208;SDS011;36320;48.860;2.380;2023-04-16T09:20:21;10.73;;;3.10;;
4208;SDS011;36320;48.860;2.380;2023-04-16T09:22:48;14.02;;;3.25;;
4208;SDS011;36320;48.860;2.380;2023-04-16T09:25:14;12.82;;;3.17;;
4208;SDS011;36320;48.860;2.380;2023-04-16T09:27:40;13.85;;;3.78;;
4208;SDS011;36320;48.860;2.380;2023-04-16T09:30:23;11.38;;;3.58;;
4208;SDS011;36320;48.860;2.380;2023-04-16T09:32:51;11.57;;;3.87;;
4208;SDS011;36320;48.860;2.380;2023-04-16T09:35:43;15.48;;;3.90;;
4208;SDS011;36320;48.860;2.380;2023-04-16T09:38:10;13.48;;;3.13;;
4208;SDS011;36320;48.860;2.380;2023-04-16T09:40:35;12.00;;;3.07;;
4208;SDS011;36320;48.860;2.380;2023-04-16T09:43:03;14.70;;;3.50;;
4208;SDS011;36320;48.860;2.380;2023-04-16T09:45:46;9.85;;;2.70;;
4208;SDS011;36320;48.860;2.380;2023-04-16T09:48:13;10.37;;;2.57;;
4208;SDS011;36320;48.860;2.380;2023-04-16T09:50:53;13.25;;;3.60;;
4208;SDS011;36320;48.860;2.380;2023-04-16T09:53:28;10.52;;;3.08;;
4208;SDS011;36320;48.860;2.380;2023-04-16T09:55:57;10.32;;;2.70;;
4208;SDS011;36320;48.860;2.380;2023-04-16T09:58:24;10.43;;;3.00;;
4208;SDS011;36320;48.860;2.380;2023-04-16T10:01:06;10.30;;;3.10;;
4208;SDS011;36320;48.860;2.380;2023-04-16T10:03:35;10.80;;;3.00;;
4208;SDS011;36320;48.860;2.380;2023-04-16T10:06:20;14.85;;;2.80;;
4208;SDS011;36320;48.860;2.380;2023-04-16T10:08:51;9.50;;;2.60;;
4208;SDS011;36320;48.860;2.380;2023-04-16T10:11:20;13.65;;;3.05;;
4208;SDS011;36320;48.860;2.380;2023-04-16T10:13:47;9.23;;;2.40;;
4208;SDS011;36320;48.860;2.380;2023-04-16T10:16:13;10.50;;;3.05;;
4208;SDS011;36320;48.860;2.380;2023-04-16T10:18:42;10.32;;;3.25;;
4208;SDS011;36320;48.860;2.380;2023-04-16T10:21:09;12.27;;;2.50;;
4208;SDS011;36320;48.860;2.380;2023-04-16T10:23:41;9.90;;;2.85;;
4208;SDS011;36320;48.860;2.380;2023-04-16T10:26:08;11.73;;;2.95;;
4208;SDS011;36320;48.860;2.380;2023-04-16T10:28:34;9.60;;;2.40;;
4208;SDS011;36320;48.860;2.380;2023-04-16T10:31:02;8.88;;;2.35;;
4208;SDS011;36320;48.860;2.380;2023-04-16T10:33:31;11.70;;;2.47;;
4208;SDS011;36320;48.860;2.380;2023-04-16T10:36:21;12.35;;;3.33;;
4208;SDS011;36320;48.860;2.380;2023-04-16T10:38:52;9.93;;;2.65;;
4208;SDS011;36320;48.860;2.380;2023-04-16T10:41:23;10.20;;;2.80;;
4208;SDS011;36320;48.860;2.380;2023-04-16T10:43:51;8.85;;;2.30;;
4208;SDS011;36320;48.860;2.380;2023-04-16T10:46:33;14.30;;;3.03;;
4208;SDS011;36320;48.860;2.380;2023-04-16T10:49:11;11.80;;;2.80;;
4208;SDS011;36320;48.860;2.380;2023-04-16T10:51:51;9.52;;;2.20;;
4208;SDS011;36320;48.860;2.380;2023-04-16T10:54:21;9.70;;;2.28;;
4208;SDS011;36320;48.860;2.380;2023-04-16T10:56:51;10.40;;;2.50;;
4208;SDS011;36320;48.860;2.380;2023-04-16T10:59:21;11.60;;;2.85;;
4208;SDS011;36320;48.860;2.380;2023-04-16T11:01:52;11.27;;;2.50;;
4208;SDS011;36320;48.860;2.380;2023-04-16T11:12:32;8.10;;;1.90;;
4208;SDS011;36320;48.860;2.380;2023-04-16T11:17:39;13.80;;;2.20;;
4208;SDS011;36320;48.860;2.380;2023-04-16T11:20:14;7.40;;;1.80;;
4208;SDS011;36320;48.860;2.380;2023-04-16T11:22:40;7.82;;;2.00;;
4208;SDS011;36320;48.860;2.380;2023-04-16T11:25:10;9.05;;;2.20;;
4208;SDS011;36320;48.860;2.380;2023-04-16T11:27:37;7.53;;;1.80;;
4208;SDS011;36320;48.860;2.380;2023-04-16T11:30:04;7.95;;;1.50;;
4208;SDS011;36320;48.860;2.380;2023-04-16T11:32:34;8.70;;;2.03;;
4208;SDS011;36320;48.860;2.380;2023-04-16T11:35:01;8.02;;;2.00;;
4208;SDS011;36320;48.860;2.380;2023-04-16T11:37:32;9.50;;;1.70;;
4208;SDS011;36320;48.860;2.380;2023-04-16T11:39:59;8.35;;;1.80;;
4208;SDS011;36320;48.860;2.380;2023-04-16T11:42:26;9.10;;;1.70;;
4208;SDS011;36320;48.860;2.380;2023-04-16T11:44:53;8.80;;;1.90;;
4208;SDS011;36320;48.860;2.380;2023-04-16T11:47:25;8.20;;;1.90;;
4208;SDS011;36320;48.860;2.380;2023-04-16T11:49:51;9.02;;;1.80;;
4208;SDS011;36320;48.860;2.380;2023-04-16T11:52:27;10.30;;;2.05;;
4208;SDS011;36320;48.860;2.380;2023-04-16T11:54:54;9.13;;;1.90;;
4208;SDS011;36320;48.860;2.380;2023-04-16T11:57:25;8.30;;;1.70;;
4208;SDS011;36320;48.860;2.380;2023-04-16T11:59:51;10.77;;;2.53;;
4208;SDS011;36320;48.860;2.380;2023-04-16T12:02:32;9.27;;;2.20;;
4208;SDS011;36320;48.860;2.380;2023-04-16T12:04:59;8.10;;;1.73;;
4208;SDS011;36320;48.860;2.380;2023-04-16T12:07:29;7.90;;;1.75;;
4208;SDS011;36320;48.860;2.380;2023-04-16T12:10:04;7.38;;;1.60;;
4208;SDS011;36320;48.860;2.380;2023-04-16T12:12:32;7.10;;;1.60;;
4208;SDS011;36320;48.860;2.380;2023-04-16T12:15:01;7.20;;;1.80;;
4208;SDS011;36320;48.860;2.380;2023-04-16T12:17:28;8.07;;;1.65;;
4208;SDS011;36320;48.860;2.380;2023-04-16T12:19:57;8.47;;;2.33;;
4208;SDS011;36320;48.860;2.380;2023-04-16T12:24:57;8.68;;;1.88;;
4208;SDS011;36320;48.860;2.380;2023-04-16T12:27:39;9.30;;;1.70;;
4208;SDS011;36320;48.860;2.380;2023-04-16T12:30:15;7.22;;;1.50;;
4208;SDS011;36320;48.860;2.380;2023-04-16T12:32:43;8.27;;;1.92;;
4208;SDS011;36320;48.860;2.380;2023-04-16T12:35:10;8.90;;;1.77;;
4208;SDS011;36320;48.860;2.380;2023-04-16T12:37:40;9.15;;;1.70;;
4208;SDS011;36320;48.860;2.380;2023-04-16T12:40:06;7.20;;;1.50;;
4208;SDS011;36320;48.860;2.380;2023-04-16T12:42:32;6.80;;;1.40;;
4208;SDS011;36320;48.860;2.380;2023-04-16T12:45:02;10.55;;;1.73;;
4208;SDS011;36320;48.860;2.380;2023-04-16T12:47:28;8.80;;;2.10;;
4208;SDS011;36320;48.860;2.380;2023-04-16T12:49:55;9.60;;;1.70;;
4208;SDS011;36320;48.860;2.380;2023-04-16T12:52:22;9.70;;;1.92;;
4208;SDS011;36320;48.860;2.380;2023-04-16T12:54:49;7.50;;;1.70;;
4208;SDS011;36320;48.860;2.380;2023-04-16T12:57:14;9.50;;;1.73;;
4208;SDS011;36320;48.860;2.380;2023-04-16T12:59:40;8.35;;;1.77;;
4208;SDS011;36320;48.860;2.380;2023-04-16T13:02:06;10.40;;;1.70;;
4208;SDS011;36320;48.860;2.380;2023-04-16T13:04:32;7.90;;;1.92;;
4208;SDS011;36320;48.860;2.380;2023-04-16T13:06:59;8.70;;;1.70;;
4208;SDS011;36320;48.860;2.380;2023-04-16T13:09:26;11.17;;;2.03;;
4208;SDS011;36320;48.860;2.380;2023-04-16T13:11:53;7.50;;;1.70;;
4208;SDS011;36320;48.860;2.380;2023-04-16T13:14:19;7.10;;;1.50;;
4208;SDS011;36320;48.860;2.380;2023-04-16T13:16:46;9.60;;;1.67;;
4208;SDS011;36320;48.860;2.380;2023-04-16T13:19:11;6.65;;;1.35;;
4208;SDS011;36320;48.860;2.380;2023-04-16T13:21:37;7.47;;;1.70;;
4208;SDS011;36320;48.860;2.380;2023-04-16T13:24:03;10.05;;;1.60;;
4208;SDS011;36320;48.860;2.380;2023-04-16T13:26:31;9.30;;;2.00;;
4208;SDS011;36320;48.860;2.380;2023-04-16T13:28:56;7.23;;;1.50;;
4208;SDS011;36320;48.860;2.380;2023-04-16T13:31:22;7.70;;;1.70;;
4208;SDS011;36320;48.860;2.380;2023-04-16T13:33:49;7.97;;;1.73;;
4208;SDS011;36320;48.860;2.380;2023-04-16T13:36:16;6.70;;;1.40;;
4208;SDS011;36320;48.860;2.380;2023-04-16T13:38:41;9.75;;;1.90;;
4208;SDS011;36320;48.860;2.380;2023-04-16T13:41:07;8.47;;;1.80;;
4208;SDS011;36320;48.860;2.380;2023-04-16T13:43:33;10.23;;;2.35;;
4208;SDS011;36320;48.860;2.380;2023-04-16T13:46:05;8.10;;;1.60;;
4208;SDS011;36320;48.860;2.380;2023-04-16T13:48:31;7.22;;;1.45;;
4208;SDS011;36320;48.860;2.380;2023-04-16T13:50:57;6.87;;;1.30;;
4208;SDS011;36320;48.860;2.380;2023-04-16T13:53:23;7.43;;;1.70;;
4208;SDS011;36320;48.860;2.380;2023-04-16T13:55:49;10.20;;;1.50;;
4208;SDS011;36320;48.860;2.380;2023-04-16T13:58:16;8.52;;;1.50;;
4208;SDS011;36320;48.860;2.380;2023-04-16T14:00:45;6.53;;;1.40;;
4208;SDS011;36320;48.860;2.380;2023-04-16T14:03:11;7.60;;;1.40;;
4208;SDS011;36320;48.860;2.380;2023-04-16T14:05:38;9.85;;;1.80;;
4208;SDS011;36320;48.860;2.380;2023-04-16T14:08:05;7.30;;;1.40;;
4208;SDS011;36320;48.860;2.380;2023-04-16T14:10:34;7.07;;;1.50;;
4208;SDS011;36320;48.860;2.380;2023-04-16T14:13:00;7.63;;;1.50;;
4208;SDS011;36320;48.860;2.380;2023-04-16T14:15:27;6.90;;;1.40;;
4208;SDS011;36320;48.860;2.380;2023-04-16T14:17:54;6.95;;;1.60;;
4208;SDS011;36320;48.860;2.380;2023-04-16T14:20:23;14.63;;;1.80;;
4208;SDS011;36320;48.860;2.380;2023-04-16T14:22:50;7.80;;;1.90;;
4208;SDS011;36320;48.860;2.380;2023-04-16T14:25:19;7.15;;;1.60;;
4208;SDS011;36320;48.860;2.380;2023-04-16T14:27:48;12.00;;;1.80;;
4208;SDS011;36320;48.860;2.380;2023-04-16T14:30:16;6.95;;;1.45;;
4208;SDS011;36320;48.860;2.380;2023-04-16T14:32:42;10.10;;;1.60;;
4208;SDS011;36320;48.860;2.380;2023-04-16T14:35:08;7.27;;;1.40;;
4208;SDS011;36320;48.860;2.380;2023-04-16T14:37:36;8.35;;;1.60;;
4208;SDS011;36320;48.860;2.380;2023-04-16T14:40:03;6.70;;;1.40;;
4208;SDS011;36320;48.860;2.380;2023-04-16T14:42:35;9.80;;;1.40;;
4208;SDS011;36320;48.860;2.380;2023-04-16T14:45:02;7.40;;;1.70;;
4208;SDS011;36320;48.860;2.380;2023-04-16T14:47:31;8.50;;;1.80;;
4208;SDS011;36320;48.860;2.380;2023-04-16T14:49:58;8.88;;;1.50;;
4208;SDS011;36320;48.860;2.380;2023-04-16T14:52:24;7.45;;;1.40;;
4208;SDS011;36320;48.860;2.380;2023-04-16T14:54:51;9.77;;;1.80;;
4208;SDS011;36320;48.860;2.380;2023-04-16T14:57:19;6.30;;;1.20;;
4208;SDS011;36320;48.860;2.380;2023-04-16T14:59:45;8.60;;;1.80;;
4208;SDS011;36320;48.860;2.380;2023-04-16T15:02:13;6.97;;;1.50;;
4208;SDS011;36320;48.860;2.380;2023-04-16T15:04:41;7.32;;;1.33;;
4208;SDS011;36320;48.860;2.380;2023-04-16T15:07:07;7.25;;;1.40;;
4208;SDS011;36320;48.860;2.380;2023-04-16T15:09:33;7.70;;;1.50;;
4208;SDS011;36320;48.860;2.380;2023-04-16T15:12:01;8.05;;;1.45;;